createdAt,value
2023-05-02T00:00:50.620Z,10.43
2023-05-02T00:03:17.493Z,10.43
2023-05-02T00:05:44.615Z,10.44
2023-05-02T00:08:11.916Z,10.45
2023-05-02T00:10:38.319Z,10.42
2023-05-02T00:13:04.852Z,10.42
2023-05-02T00:15:31.424Z,10.43
2023-05-02T00:17:58.037Z,10.45
2023-05-02T00:20:24.633Z,10.45
2023-05-02T00:22:51.018Z,10.46
2023-05-02T00:25:17.610Z,10.48
2023-05-02T00:27:46.501Z,10.47
2023-05-02T00:30:14.030Z,10.48
2023-05-02T00:32:40.774Z,10.48
2023-05-02T00:35:08.109Z,10.49
2023-05-02T00:37:34.840Z,10.51
2023-05-02T00:40:02.046Z,10.52
2023-05-02T00:42:31.675Z,10.52
2023-05-02T00:44:58.245Z,10.52
2023-05-02T00:47:24.837Z,10.51
2023-05-02T00:49:51.308Z,10.49
2023-05-02T00:52:18.537Z,10.50
2023-05-02T00:54:45.506Z,10.50
2023-05-02T00:57:11.977Z,10.49
2023-05-02T00:59:39.010Z,10.49
2023-05-02T01:02:11.899Z,10.51
2023-05-02T01:05:12.732Z,10.50
2023-05-02T01:07:59.730Z,10.49
2023-05-02T01:11:00.439Z,10.50
2023-05-02T01:13:32.065Z,10.50
2023-05-02T01:16:01.353Z,10.46
2023-05-02T01:18:32.420Z,10.40
2023-05-02T01:21:04.594Z,10.37
2023-05-02T01:23:41.080Z,10.34
2023-05-02T01:26:21.619Z,10.32
2023-05-02T01:29:05.983Z,10.31
2023-05-02T01:31:38.254Z,10.29
2023-05-02T01:34:10.161Z,10.27
2023-05-02T01:36:40.836Z,10.27
2023-05-02T01:39:08.600Z,10.27
2023-05-02T01:41:36.728Z,10.24
2023-05-02T01:44:04.735Z,10.26
2023-05-02T01:46:34.327Z,10.22
2023-05-02T01:49:05.499Z,10.18
2023-05-02T01:51:35.392Z,10.15
2023-05-02T01:54:07.243Z,10.09
2023-05-02T01:56:37.929Z,10.06
2023-05-02T01:59:10.961Z,10.03
2023-05-02T02:01:40.218Z,10.01
2023-05-02T02:04:11.371Z,10.02
2023-05-02T02:06:39.025Z,10.02
2023-05-02T02:09:06.069Z,9.99
2023-05-02T02:11:44.045Z,9.96
2023-05-02T02:14:27.968Z,9.97
2023-05-02T02:16:57.601Z,9.97
2023-05-02T02:19:24.792Z,9.94
2023-05-02T02:21:54.017Z,9.92
2023-05-02T02:24:22.787Z,9.92
2023-05-02T02:26:49.277Z,9.92
2023-05-02T02:29:15.707Z,9.91
2023-05-02T02:31:42.196Z,9.89
2023-05-02T02:34:08.888Z,9.89
2023-05-02T02:36:57.458Z,9.86
2023-05-02T02:39:27.014Z,9.82
2023-05-02T02:42:04.920Z,9.79
2023-05-02T02:44:44.193Z,9.77
2023-05-02T02:47:19.866Z,9.77
2023-05-02T02:50:08.412Z,9.74
2023-05-02T02:52:46.792Z,9.70
2023-05-02T02:55:24.354Z,9.70
2023-05-02T02:58:00.245Z,9.68
2023-05-02T03:00:28.732Z,9.66
2023-05-02T03:02:56.609Z,9.68
2023-05-02T03:05:24.082Z,9.65
2023-05-02T03:07:51.322Z,9.61
2023-05-02T03:10:18.024Z,9.63
2023-05-02T03:12:44.414Z,9.64
2023-05-02T03:15:41.532Z,9.64
2023-05-02T03:18:08.217Z,9.64
2023-05-02T03:20:34.713Z,9.63
2023-05-02T03:23:01.434Z,9.63
2023-05-02T03:25:28.104Z,9.65
2023-05-02T03:27:57.463Z,9.64
2023-05-02T03:30:23.975Z,9.62
2023-05-02T03:32:50.637Z,9.61
2023-05-02T03:35:17.544Z,9.57
2023-05-02T03:37:44.783Z,9.57
2023-05-02T03:40:11.666Z,9.56
2023-05-02T03:42:41.424Z,9.55
2023-05-02T03:45:08.750Z,9.54
2023-05-02T03:47:35.249Z,9.54
2023-05-02T03:50:03.400Z,9.50
2023-05-02T03:52:29.862Z,9.44
2023-05-02T03:54:57.265Z,9.40
2023-05-02T03:57:23.730Z,9.30
2023-05-02T03:59:50.148Z,9.29
2023-05-02T04:02:16.644Z,9.29
2023-05-02T04:04:43.876Z,9.24
2023-05-02T04:07:16.834Z,9.26
2023-05-02T04:09:43.289Z,9.26
2023-05-02T04:12:09.744Z,9.22
2023-05-02T04:14:36.156Z,9.22
2023-05-02T04:17:02.645Z,9.24
2023-05-02T04:19:29.115Z,9.19
2023-05-02T04:21:55.571Z,9.18
2023-05-02T04:24:22.631Z,9.19
2023-05-02T04:26:49.083Z,9.19
2023-05-02T04:29:15.604Z,9.21
2023-05-02T04:31:42.260Z,9.20
2023-05-02T04:34:08.677Z,9.17
2023-05-02T04:36:35.324Z,9.03
2023-05-02T04:39:02.248Z,8.94
2023-05-02T04:41:28.650Z,8.87
2023-05-02T04:43:55.146Z,8.82
2023-05-02T04:46:21.619Z,8.77
2023-05-02T04:48:48.208Z,8.77
2023-05-02T04:51:16.902Z,8.78
2023-05-02T04:53:43.543Z,8.77
2023-05-02T04:56:11.320Z,8.74
2023-05-02T04:58:37.828Z,8.68
2023-05-02T05:01:04.296Z,8.69
2023-05-02T05:03:31.343Z,8.69
2023-05-02T05:05:57.977Z,8.66
2023-05-02T05:08:24.500Z,8.60
2023-05-02T05:10:51.930Z,8.61
2023-05-02T05:13:18.486Z,8.64
2023-05-02T05:15:45.287Z,8.65
2023-05-02T05:18:12.159Z,8.67
2023-05-02T05:20:38.802Z,8.68
2023-05-02T05:23:05.529Z,8.66
2023-05-02T05:25:32.684Z,8.62
2023-05-02T05:28:00.321Z,8.66
2023-05-02T05:30:27.364Z,8.66
2023-05-02T05:32:53.855Z,8.63
2023-05-02T05:35:21.773Z,8.56
2023-05-02T05:37:48.196Z,8.59
2023-05-02T05:40:14.643Z,8.55
2023-05-02T05:42:41.147Z,8.48
2023-05-02T05:45:08.295Z,8.46
2023-05-02T05:47:34.970Z,8.42
2023-05-02T05:50:01.802Z,8.41
2023-05-02T05:52:28.540Z,8.40
2023-05-02T05:54:56.490Z,8.41
2023-05-02T05:57:24.261Z,8.36
2023-05-02T05:59:53.077Z,8.36
2023-05-02T06:02:20.127Z,8.39
2023-05-02T06:04:47.133Z,8.47
2023-05-02T06:07:13.725Z,8.51
2023-05-02T06:09:40.374Z,8.59
2023-05-02T06:12:07.099Z,8.66
2023-05-02T06:14:35.282Z,8.72
2023-05-02T06:17:02.160Z,8.80
2023-05-02T06:19:28.956Z,8.92
2023-05-02T06:21:55.734Z,8.99
2023-05-02T06:24:22.522Z,8.97
2023-05-02T06:26:49.523Z,9.04
2023-05-02T06:29:16.078Z,9.11
2023-05-02T06:31:44.066Z,9.19
2023-05-02T06:34:12.896Z,9.24
2023-05-02T06:36:40.519Z,9.24
2023-05-02T06:39:22.644Z,9.29
2023-05-02T06:41:49.183Z,9.19
2023-05-02T06:44:33.477Z,8.94
2023-05-02T06:47:28.996Z,8.80
2023-05-02T06:49:56.271Z,8.70
2023-05-02T06:52:22.782Z,8.69
2023-05-02T06:54:49.666Z,8.68
2023-05-02T06:57:17.298Z,8.63
2023-05-02T06:59:43.734Z,8.62
2023-05-02T07:02:10.226Z,8.58
2023-05-02T07:04:36.958Z,8.62
2023-05-02T07:07:04.120Z,8.68
2023-05-02T07:09:30.784Z,8.69
2023-05-02T07:11:57.807Z,8.75
2023-05-02T07:14:27.615Z,8.76
2023-05-02T07:16:54.137Z,8.84
2023-05-02T07:19:20.637Z,8.74
2023-05-02T07:21:47.267Z,8.86
2023-05-02T07:24:13.780Z,8.94
2023-05-02T07:26:41.127Z,8.89
2023-05-02T07:29:08.801Z,8.82
2023-05-02T07:31:35.209Z,8.89
2023-05-02T07:34:10.821Z,8.89
2023-05-02T07:36:37.543Z,8.78
2023-05-02T07:39:04.183Z,8.79
2023-05-02T07:41:31.727Z,8.93
2023-05-02T07:43:58.524Z,8.98
2023-05-02T07:46:26.024Z,9.06
2023-05-02T07:48:54.007Z,9.03
2023-05-02T07:51:21.699Z,9.13
2023-05-02T07:53:53.192Z,9.20
2023-05-02T07:56:20.056Z,9.54
2023-05-02T07:59:27.693Z,9.36
2023-05-02T08:01:54.460Z,9.47
2023-05-02T08:04:21.116Z,9.30
2023-05-02T08:06:47.957Z,9.33
2023-05-02T08:09:14.697Z,9.46
2023-05-02T08:11:41.370Z,9.27
2023-05-02T08:14:08.669Z,9.31
2023-05-02T08:16:35.581Z,9.22
2023-05-02T08:19:02.428Z,9.13
2023-05-02T08:21:31.155Z,9.25
2023-05-02T08:23:59.066Z,9.55
2023-05-02T08:26:26.563Z,9.74
2023-05-02T08:28:53.467Z,9.98
2023-05-02T08:31:20.174Z,10.07
2023-05-02T08:33:47.665Z,9.85
2023-05-02T08:36:15.782Z,9.95
2023-05-02T08:38:43.699Z,9.87
2023-05-02T08:41:19.546Z,9.89
2023-05-02T08:43:47.363Z,10.00
2023-05-02T08:46:17.519Z,9.85
2023-05-02T08:48:48.240Z,9.93
2023-05-02T08:51:35.671Z,9.99
2023-05-02T08:54:03.853Z,10.24
2023-05-02T08:56:30.288Z,10.78
2023-05-02T08:58:57.066Z,10.82
2023-05-02T09:01:27.566Z,11.07
2023-05-02T09:03:57.765Z,11.01
2023-05-02T09:06:46.721Z,11.06
2023-05-02T09:09:14.360Z,10.81
2023-05-02T09:11:41.502Z,10.67
2023-05-02T09:14:45.143Z,10.61
2023-05-02T09:17:13.772Z,10.95
2023-05-02T09:19:43.067Z,10.54
2023-05-02T09:22:10.874Z,10.56
2023-05-02T09:24:38.574Z,10.51
2023-05-02T09:27:05.672Z,10.60
2023-05-02T09:29:39.460Z,11.13
2023-05-02T09:32:06.852Z,11.41
2023-05-02T09:34:34.026Z,11.53
2023-05-02T09:37:02.569Z,12.09
2023-05-02T09:39:29.591Z,11.76
2023-05-02T09:41:56.883Z,11.37
2023-05-02T09:44:28.393Z,11.21
2023-05-02T09:47:02.587Z,11.86
2023-05-02T09:49:44.965Z,12.35
2023-05-02T09:52:14.112Z,12.43
2023-05-02T09:54:40.837Z,12.54
2023-05-02T09:57:07.486Z,12.52
2023-05-02T09:59:34.478Z,12.80
2023-05-02T10:02:05.501Z,12.61
2023-05-02T10:04:42.047Z,12.86
2023-05-02T10:07:11.254Z,12.86
2023-05-02T10:09:45.767Z,12.51
2023-05-02T10:12:15.570Z,12.08
2023-05-02T10:14:49.509Z,12.28
2023-05-02T10:17:28.161Z,13.14
2023-05-02T10:20:04.175Z,13.48
2023-05-02T10:22:40.310Z,13.32
2023-05-02T10:25:26.910Z,13.92
2023-05-02T10:27:56.593Z,13.51
2023-05-02T10:30:24.473Z,14.17
2023-05-02T10:32:55.942Z,14.21
2023-05-02T10:35:25.638Z,14.34
2023-05-02T10:37:52.783Z,14.51
2023-05-02T10:40:19.411Z,14.20
2023-05-02T10:42:53.820Z,14.43
2023-05-02T10:45:40.245Z,14.76
2023-05-02T10:48:17.906Z,14.30
2023-05-02T10:51:34.386Z,13.19
2023-05-02T10:54:30.054Z,13.10
2023-05-02T10:56:59.438Z,13.23
2023-05-02T10:59:34.822Z,13.25
2023-05-02T11:02:06.821Z,13.83
2023-05-02T11:05:39.472Z,13.98
2023-05-02T11:08:15.210Z,13.64
2023-05-02T11:10:46.284Z,13.14
2023-05-02T11:13:13.064Z,13.31
2023-05-02T11:15:42.445Z,13.78
2023-05-02T11:18:14.384Z,14.20
2023-05-02T11:20:43.264Z,14.51
2023-05-02T11:23:38.474Z,14.31
2023-05-02T11:27:08.585Z,14.31
2023-05-02T11:30:47.973Z,14.04
2023-05-02T11:33:17.353Z,14.28
2023-05-02T11:35:45.413Z,14.84
2023-05-02T11:38:15.009Z,15.03
2023-05-02T11:40:49.662Z,14.88
2023-05-02T11:43:17.975Z,13.73
2023-05-02T11:45:47.433Z,13.03
2023-05-02T11:48:16.892Z,12.67
2023-05-02T11:50:50.472Z,13.14
2023-05-02T11:53:24.704Z,13.74
2023-05-02T11:55:53.447Z,13.56
2023-05-02T11:58:22.873Z,13.31
2023-05-02T12:00:50.514Z,13.92
2023-05-02T12:03:28.802Z,14.07
2023-05-02T12:05:56.242Z,14.36
2023-05-02T12:08:34.562Z,13.49
2023-05-02T12:11:03.666Z,12.97
2023-05-02T12:13:31.294Z,12.75
2023-05-02T12:15:58.489Z,12.78
2023-05-02T12:18:27.151Z,13.37
2023-05-02T12:20:56.147Z,13.40
2023-05-02T12:23:26.403Z,12.74
2023-05-02T12:25:53.115Z,12.89
2023-05-02T12:28:22.134Z,13.52
2023-05-02T12:30:50.707Z,13.55
2023-05-02T12:33:18.461Z,13.61
2023-05-02T12:35:49.628Z,13.91
2023-05-02T12:38:18.701Z,13.93
2023-05-02T12:40:58.722Z,14.12
2023-05-02T12:43:25.735Z,14.33
2023-05-02T12:46:09.751Z,13.75
2023-05-02T12:48:37.472Z,13.57
2023-05-02T12:51:04.860Z,12.75
2023-05-02T12:53:41.483Z,12.62
2023-05-02T12:56:12.477Z,12.60
2023-05-02T12:58:50.981Z,12.91
2023-05-02T13:01:17.749Z,13.49
2023-05-02T13:03:44.798Z,13.72
2023-05-02T13:06:11.435Z,13.96
2023-05-02T13:08:38.036Z,13.12
2023-05-02T13:11:12.976Z,13.12
2023-05-02T13:13:40.509Z,13.75
2023-05-02T13:16:11.226Z,14.01
2023-05-02T13:18:38.870Z,14.32
2023-05-02T13:21:05.398Z,14.30
2023-05-02T13:23:32.267Z,13.94
2023-05-02T13:25:59.237Z,13.04
2023-05-02T13:28:26.011Z,13.32
2023-05-02T13:30:52.596Z,13.60
2023-05-02T13:33:19.217Z,13.81
2023-05-02T13:35:46.571Z,13.89
2023-05-02T13:38:13.098Z,13.92
2023-05-02T13:40:40.364Z,13.53
2023-05-02T13:43:07.835Z,12.91
2023-05-02T13:45:34.366Z,12.90
2023-05-02T13:48:33.814Z,13.46
2023-05-02T13:51:00.249Z,13.14
2023-05-02T13:53:26.887Z,13.10
2023-05-02T13:55:53.284Z,13.44
2023-05-02T13:58:19.701Z,13.39
2023-05-02T14:00:46.594Z,13.71
2023-05-02T14:03:13.653Z,13.92
2023-05-02T14:05:43.949Z,13.67
2023-05-02T14:08:11.523Z,13.86
2023-05-02T14:10:38.741Z,14.15
2023-05-02T14:13:05.319Z,14.31
2023-05-02T14:15:31.797Z,14.44
2023-05-02T14:17:58.310Z,14.57
2023-05-02T14:20:24.852Z,14.15
2023-05-02T14:22:51.404Z,13.85
2023-05-02T14:25:19.779Z,13.78
2023-05-02T14:27:46.978Z,13.99
2023-05-02T14:30:13.464Z,13.86
2023-05-02T14:32:40.273Z,13.93
2023-05-02T14:35:07.053Z,14.25
2023-05-02T14:37:33.457Z,14.54
2023-05-02T14:40:00.030Z,14.72
2023-05-02T14:42:26.638Z,14.59
2023-05-02T14:44:53.471Z,14.60
2023-05-02T14:47:20.469Z,14.75
2023-05-02T14:49:47.045Z,14.89
2023-05-02T14:52:13.573Z,14.89
2023-05-02T14:54:39.963Z,14.86
2023-05-02T14:57:06.969Z,14.47
2023-05-02T14:59:33.361Z,14.43
2023-05-02T15:01:59.872Z,14.16
2023-05-02T15:04:27.469Z,14.18
2023-05-02T15:06:55.481Z,13.99
2023-05-02T15:09:23.612Z,14.29
2023-05-02T15:11:50.225Z,14.26
2023-05-02T15:14:16.660Z,14.06
2023-05-02T15:16:43.264Z,14.00
2023-05-02T15:19:09.736Z,13.61
2023-05-02T15:21:36.404Z,13.97
2023-05-02T15:24:03.782Z,14.59
2023-05-02T15:26:30.400Z,14.39
2023-05-02T15:28:56.825Z,13.74
2023-05-02T15:31:23.579Z,13.52
2023-05-02T15:33:51.041Z,14.14
2023-05-02T15:36:17.919Z,14.52
2023-05-02T15:38:44.381Z,14.54
2023-05-02T15:41:11.547Z,14.85
2023-05-02T15:43:38.309Z,14.43
2023-05-02T15:46:05.062Z,13.70
2023-05-02T15:48:35.761Z,13.30
2023-05-02T15:51:02.811Z,13.22
2023-05-02T15:53:29.465Z,13.30
2023-05-02T15:55:56.110Z,13.37
2023-05-02T15:58:22.661Z,13.92
2023-05-02T16:00:49.095Z,13.40
2023-05-02T16:03:15.791Z,13.28
2023-05-02T16:05:42.432Z,13.25
2023-05-02T16:08:08.927Z,13.27
2023-05-02T16:10:36.598Z,13.70
2023-05-02T16:13:03.102Z,13.81
2023-05-02T16:15:30.325Z,13.96
2023-05-02T16:17:57.168Z,13.94
2023-05-02T16:20:23.869Z,13.79
2023-05-02T16:22:50.449Z,13.74
2023-05-02T16:25:17.677Z,13.94
2023-05-02T16:27:44.431Z,14.24
2023-05-02T16:30:11.281Z,14.20
2023-05-02T16:32:37.930Z,13.92
2023-05-02T16:35:07.489Z,13.35
2023-05-02T16:37:35.266Z,13.32
2023-05-02T16:40:02.384Z,13.46
2023-05-02T16:42:29.388Z,13.45
2023-05-02T16:44:57.129Z,13.49
2023-05-02T16:47:24.406Z,13.19
2023-05-02T16:49:58.749Z,12.89
2023-05-02T16:52:26.342Z,13.19
2023-05-02T16:54:53.023Z,13.47
2023-05-02T16:57:21.017Z,13.47
2023-05-02T16:59:49.059Z,12.77
2023-05-02T17:02:16.155Z,12.41
2023-05-02T17:04:43.221Z,12.13
2023-05-02T17:07:12.153Z,12.07
2023-05-02T17:09:40.039Z,11.83
2023-05-02T17:12:07.414Z,11.60
2023-05-02T17:14:34.299Z,11.43
2023-05-02T17:17:01.333Z,11.28
2023-05-02T17:19:27.924Z,11.05
2023-05-02T17:21:56.606Z,10.95
2023-05-02T17:24:23.248Z,10.77
2023-05-02T17:26:51.328Z,10.59
2023-05-02T17:29:18.079Z,10.51
2023-05-02T17:31:44.761Z,10.50
2023-05-02T17:34:11.136Z,10.40
2023-05-02T17:36:41.666Z,10.33
2023-05-02T17:39:08.604Z,10.26
2023-05-02T17:41:38.105Z,10.28
2023-05-02T17:44:07.413Z,10.23
2023-05-02T17:46:34.009Z,10.30
2023-05-02T17:49:01.171Z,10.12
2023-05-02T17:51:28.002Z,10.00
2023-05-02T17:53:54.521Z,9.92
2023-05-02T17:56:20.962Z,9.93
2023-05-02T17:58:47.715Z,9.93
2023-05-02T18:01:14.513Z,9.69
2023-05-02T18:03:41.756Z,9.56
2023-05-02T18:06:08.884Z,9.51
2023-05-02T18:08:35.519Z,9.52
2023-05-02T18:11:03.216Z,9.42
2023-05-02T18:13:29.828Z,9.32
2023-05-02T18:16:01.446Z,9.25
2023-05-02T18:18:28.144Z,9.19
2023-05-02T18:20:55.697Z,9.09
2023-05-02T18:23:22.345Z,8.98
2023-05-02T18:25:48.726Z,9.03
2023-05-02T18:28:15.389Z,8.95
2023-05-02T18:30:41.777Z,8.94
2023-05-02T18:33:08.988Z,8.90
2023-05-02T18:35:35.630Z,8.86
2023-05-02T18:38:02.479Z,8.85
2023-05-02T18:40:28.887Z,8.86
2023-05-02T18:42:55.298Z,8.82
2023-05-02T18:45:21.739Z,8.78
2023-05-02T18:47:49.381Z,8.81
2023-05-02T18:50:15.898Z,8.70
2023-05-02T18:52:42.282Z,8.56
2023-05-02T18:55:08.725Z,8.42
2023-05-02T18:57:35.113Z,8.39
2023-05-02T19:00:01.749Z,8.30
2023-05-02T19:02:28.297Z,8.21
2023-05-02T19:04:55.188Z,8.27
2023-05-02T19:07:21.650Z,8.30
2023-05-02T19:09:48.092Z,8.30
2023-05-02T19:12:14.480Z,8.25
2023-05-02T19:14:41.187Z,8.15
2023-05-02T19:17:07.635Z,8.07
2023-05-02T19:19:34.092Z,8.01
2023-05-02T19:22:00.479Z,7.97
2023-05-02T19:24:26.916Z,7.87
2023-05-02T19:26:53.622Z,7.86
2023-05-02T19:29:20.088Z,7.86
2023-05-02T19:31:46.624Z,7.84
2023-05-02T19:34:13.096Z,7.82
2023-05-02T19:36:39.537Z,7.78
2023-05-02T19:39:06.284Z,7.76
2023-05-02T19:41:32.784Z,7.66
2023-05-02T19:44:00.228Z,7.52
2023-05-02T19:46:27.175Z,7.37
2023-05-02T19:48:53.698Z,7.34
2023-05-02T19:51:25.230Z,7.32
2023-05-02T19:53:58.307Z,7.32
2023-05-02T19:56:28.759Z,7.29
2023-05-02T19:58:56.723Z,7.26
2023-05-02T20:01:23.224Z,7.19
2023-05-02T20:03:49.752Z,7.15
2023-05-02T20:06:16.240Z,7.10
2023-05-02T20:08:42.719Z,7.04
2023-05-02T20:11:09.078Z,7.02
2023-05-02T20:13:35.849Z,6.99
2023-05-02T20:16:02.565Z,6.99
2023-05-02T20:18:28.982Z,6.92
2023-05-02T20:20:55.542Z,6.89
2023-05-02T20:23:21.955Z,6.83
2023-05-02T20:25:48.356Z,6.82
2023-05-02T20:28:15.001Z,6.76
2023-05-02T20:30:42.803Z,6.72
2023-05-02T20:33:15.667Z,6.66
2023-05-02T20:35:43.593Z,6.64
2023-05-02T20:38:10.069Z,6.62
2023-05-02T20:40:40.879Z,6.62
2023-05-02T20:43:07.819Z,6.61
2023-05-02T20:45:34.250Z,6.56
2023-05-02T20:48:00.798Z,6.50
2023-05-02T20:50:28.271Z,6.47
2023-05-02T20:52:55.280Z,6.43
2023-05-02T20:55:22.984Z,6.39
2023-05-02T20:57:53.369Z,6.35
2023-05-02T21:00:22.269Z,6.29
2023-05-02T21:02:49.035Z,6.26
2023-05-02T21:05:15.666Z,6.23
2023-05-02T21:07:42.127Z,6.18
2023-05-02T21:10:09.324Z,6.12
2023-05-02T21:12:35.749Z,5.95
2023-05-02T21:15:02.366Z,5.89
2023-05-02T21:17:28.949Z,5.91
2023-05-02T21:19:56.010Z,5.94
2023-05-02T21:22:22.439Z,5.90
2023-05-02T21:24:50.306Z,5.84
2023-05-02T21:27:16.793Z,5.74
2023-05-02T21:29:43.204Z,5.74
2023-05-02T21:32:09.702Z,5.72
2023-05-02T21:34:36.274Z,5.72
2023-05-02T21:37:02.701Z,5.77
2023-05-02T21:39:29.209Z,5.79
2023-05-02T21:41:56.238Z,5.68
2023-05-02T21:44:22.734Z,5.52
2023-05-02T21:46:50.398Z,5.40
2023-05-02T21:49:16.983Z,5.37
2023-05-02T21:51:43.447Z,5.37
2023-05-02T21:54:09.905Z,5.36
2023-05-02T21:56:36.332Z,5.34
2023-05-02T21:59:02.930Z,5.35
2023-05-02T22:01:29.467Z,5.36
2023-05-02T22:03:56.515Z,5.35
2023-05-02T22:06:23.040Z,5.28
2023-05-02T22:08:49.444Z,5.22
2023-05-02T22:11:15.922Z,5.17
2023-05-02T22:13:42.313Z,5.13
2023-05-02T22:16:08.977Z,5.10
2023-05-02T22:18:35.541Z,5.10
2023-05-02T22:21:02.184Z,5.08
2023-05-02T22:23:28.620Z,5.09
2023-05-02T22:25:54.991Z,5.02
2023-05-02T22:28:21.594Z,4.93
2023-05-02T22:30:47.972Z,4.91
2023-05-02T22:33:14.391Z,4.85
2023-05-02T22:35:40.957Z,4.86
2023-05-02T22:38:10.917Z,4.80
2023-05-02T22:40:37.457Z,4.78
2023-05-02T22:43:03.939Z,4.75
2023-05-02T22:45:30.540Z,4.72
2023-05-02T22:47:57.078Z,4.72
2023-05-02T22:50:24.533Z,4.72
2023-05-02T22:52:51.119Z,4.69
2023-05-02T22:55:17.701Z,4.64
2023-05-02T22:57:44.100Z,4.60
2023-05-02T23:00:11.286Z,4.58
2023-05-02T23:02:38.206Z,4.57
2023-05-02T23:05:06.471Z,4.54
2023-05-02T23:07:33.098Z,4.50
2023-05-02T23:09:59.540Z,4.46
2023-05-02T23:12:25.971Z,4.43
2023-05-02T23:14:52.346Z,4.43
2023-05-02T23:17:18.825Z,4.42
2023-05-02T23:19:45.283Z,4.40
2023-05-02T23:22:11.728Z,4.39
2023-05-02T23:24:38.321Z,4.36
2023-05-02T23:27:06.252Z,4.30
2023-05-02T23:29:32.901Z,4.25
2023-05-02T23:31:59.443Z,4.10
2023-05-02T23:34:26.039Z,3.95
2023-05-02T23:36:52.861Z,3.92
2023-05-02T23:39:19.325Z,3.95
2023-05-02T23:41:45.743Z,3.97
2023-05-02T23:44:12.221Z,3.94
2023-05-02T23:46:38.705Z,3.93
2023-05-02T23:49:05.211Z,3.96
2023-05-02T23:51:32.059Z,3.94
2023-05-02T23:53:58.592Z,3.91
2023-05-02T23:56:25.429Z,3.90
2023-05-02T23:58:51.841Z,3.88
